createdAt,value
2023-03-24T00:00:52.197Z,20
2023-03-24T00:06:27.884Z,12
2023-03-24T00:12:03.161Z,16
2023-03-24T00:17:42.213Z,12
2023-03-24T00:23:17.637Z,18
2023-03-24T00:28:52.975Z,16
2023-03-24T00:34:37.076Z,8
2023-03-24T00:40:15.426Z,8
2023-03-24T00:46:19.944Z,14
2023-03-24T00:52:03.248Z,14
2023-03-24T00:57:40.849Z,10
2023-03-24T01:03:16.994Z,16
2023-03-24T01:09:00.652Z,24
2023-03-24T01:14:37.047Z,16
2023-03-24T01:20:21.489Z,12
2023-03-24T01:25:57.601Z,22
2023-03-24T01:31:33.226Z,18
2023-03-24T01:37:13.871Z,8
2023-03-24T01:43:05.524Z,14
2023-03-24T01:48:51.458Z,24
2023-03-24T01:54:36.825Z,16
2023-03-24T02:00:27.201Z,16
2023-03-24T02:06:02.285Z,24
2023-03-24T02:11:45.437Z,20
2023-03-24T02:17:39.905Z,16
2023-03-24T02:23:19.758Z,18
2023-03-24T02:28:55.065Z,16
2023-03-24T02:34:30.088Z,14
2023-03-24T02:40:12.540Z,12
2023-03-24T02:45:49.041Z,16
2023-03-24T02:51:25.708Z,14
2023-03-24T02:57:05.371Z,16
2023-03-24T03:02:51.146Z,17
2023-03-24T03:08:27.058Z,12
2023-03-24T03:14:04.408Z,4
2023-03-24T03:20:05.751Z,10
2023-03-24T03:25:44.580Z,14
2023-03-24T03:31:45.714Z,12
2023-03-24T03:37:21.989Z,8
2023-03-24T03:42:58.633Z,6
2023-03-24T03:48:33.996Z,14
2023-03-24T03:54:09.305Z,12
2023-03-24T03:59:44.816Z,10
2023-03-24T04:05:26.721Z,16
2023-03-24T04:11:10.090Z,10
2023-03-24T04:16:56.326Z,14
2023-03-24T04:22:32.611Z,8
2023-03-24T04:28:12.423Z,10
2023-03-24T04:33:59.814Z,6
2023-03-24T04:39:50.510Z,8
2023-03-24T04:45:29.057Z,14
2023-03-24T04:51:20.473Z,10
2023-03-24T04:57:03.946Z,0
2023-03-24T05:02:40.700Z,8
2023-03-24T05:08:17.586Z,2
2023-03-24T05:13:52.956Z,8
2023-03-24T05:19:28.369Z,10
2023-03-24T05:25:04.938Z,16
2023-03-24T05:30:40.412Z,4
2023-03-24T05:36:16.532Z,2
2023-03-24T05:41:51.846Z,2
2023-03-24T05:47:31.060Z,13
2023-03-24T05:53:25.183Z,8
2023-03-24T05:59:08.866Z,11
2023-03-24T06:05:18.531Z,12
2023-03-24T06:10:54.522Z,2
2023-03-24T06:16:30.815Z,4
2023-03-24T06:22:17.953Z,6
2023-03-24T06:27:53.980Z,4
2023-03-24T06:33:48.448Z,4
2023-03-24T06:39:23.577Z,2
2023-03-24T06:44:58.909Z,6
2023-03-24T06:50:44.894Z,8
2023-03-24T06:56:47.903Z,8
2023-03-24T07:02:26.811Z,4
2023-03-24T07:08:39.392Z,16
2023-03-24T07:14:15.195Z,14
2023-03-24T07:19:56.216Z,10
2023-03-24T07:25:40.682Z,18
2023-03-24T07:32:01.268Z,14
2023-03-24T07:37:37.431Z,14
2023-03-24T07:43:14.126Z,16
2023-03-24T07:48:51.961Z,12
2023-03-24T07:54:43.555Z,18
2023-03-24T08:00:22.098Z,2
2023-03-24T08:05:57.621Z,2
2023-03-24T08:11:32.911Z,10
2023-03-24T08:17:09.168Z,12
2023-03-24T08:22:44.324Z,6
2023-03-24T08:28:27.505Z,4
2023-03-24T08:34:04.960Z,2
2023-03-24T08:39:43.314Z,6
2023-03-24T08:45:34.206Z,6
2023-03-24T08:51:09.550Z,2
2023-03-24T08:56:51.754Z,0
2023-03-24T09:02:28.083Z,4
2023-03-24T09:08:06.179Z,0
2023-03-24T09:13:51.172Z,10
2023-03-24T09:19:27.132Z,7
2023-03-24T09:25:12.791Z,2
2023-03-24T09:30:51.214Z,0
2023-03-24T09:36:32.327Z,4
2023-03-24T09:42:11.428Z,0
2023-03-24T09:48:05.768Z,7
2023-03-24T09:53:56.938Z,0
2023-03-24T09:59:33.906Z,4
2023-03-24T10:05:23.602Z,0
2023-03-24T10:11:24.069Z,0
2023-03-24T10:17:21.632Z,2
2023-03-24T10:23:20.801Z,6
2023-03-24T10:28:56.686Z,0
2023-03-24T10:34:34.561Z,0
2023-03-24T10:40:10.648Z,0
2023-03-24T10:45:47.258Z,6
2023-03-24T10:51:23.926Z,0
2023-03-24T10:57:00.193Z,7
2023-03-24T11:02:46.650Z,2
2023-03-24T11:08:24.918Z,2
2023-03-24T11:14:13.952Z,4
2023-03-24T11:20:06.809Z,6
2023-03-24T11:26:27.416Z,0
2023-03-24T11:32:21.878Z,0
2023-03-24T11:37:57.778Z,0
2023-03-24T11:43:41.866Z,2
2023-03-24T11:49:17.985Z,0
2023-03-24T11:54:53.610Z,8
2023-03-24T12:00:36.479Z,2
2023-03-24T12:06:13.229Z,12
2023-03-24T12:11:50.659Z,12
2023-03-24T12:17:27.231Z,0
2023-03-24T12:23:03.070Z,11
2023-03-24T12:28:44.527Z,6
2023-03-24T12:34:24.119Z,0
2023-03-24T12:39:59.593Z,2
2023-03-24T12:46:01.953Z,6
2023-03-24T12:51:51.424Z,18
2023-03-24T12:57:41.042Z,8
2023-03-24T13:03:18.579Z,4
2023-03-24T13:08:54.393Z,26
2023-03-24T13:14:34.203Z,8
2023-03-24T13:20:15.126Z,10
2023-03-24T13:25:51.784Z,12
2023-03-24T13:31:28.194Z,11
2023-03-24T13:37:03.323Z,2
2023-03-24T13:42:39.323Z,4
2023-03-24T13:48:19.418Z,0
2023-03-24T13:54:05.950Z,0
2023-03-24T13:59:50.038Z,6
2023-03-24T14:05:36.215Z,4
2023-03-24T14:11:13.970Z,0
2023-03-24T14:16:50.219Z,0
2023-03-24T14:22:25.566Z,0
2023-03-24T14:28:14.066Z,0
2023-03-24T14:33:51.327Z,0
2023-03-24T14:39:30.720Z,4
2023-03-24T14:45:07.083Z,4
2023-03-24T14:50:51.909Z,2
2023-03-24T14:56:28.717Z,2
2023-03-24T15:02:05.456Z,2
2023-03-24T15:08:02.117Z,0
2023-03-24T15:13:49.714Z,4
2023-03-24T15:19:34.003Z,4
2023-03-24T15:25:17.405Z,9
2023-03-24T15:31:17.699Z,0
2023-03-24T15:36:54.091Z,2
2023-03-24T15:42:40.917Z,2
2023-03-24T15:48:21.950Z,0
2023-03-24T15:53:58.847Z,0
2023-03-24T15:59:46.388Z,0
2023-03-24T16:05:49.695Z,0
2023-03-24T16:11:25.473Z,0
2023-03-24T16:17:11.692Z,2
2023-03-24T16:22:50.846Z,0
2023-03-24T16:28:34.857Z,0
2023-03-24T16:34:10.747Z,2
2023-03-24T16:39:49.750Z,0
2023-03-24T16:46:15.584Z,0
2023-03-24T16:52:04.924Z,0
2023-03-24T16:57:56.785Z,4
2023-03-24T17:03:33.398Z,0
2023-03-24T17:09:13.555Z,0
2023-03-24T17:14:49.404Z,0
2023-03-24T17:20:25.916Z,2
2023-03-24T17:26:03.501Z,4
2023-03-24T17:31:44.616Z,2
2023-03-24T17:37:20.203Z,0
2023-03-24T17:43:05.764Z,4
2023-03-24T17:48:49.272Z,0
2023-03-24T17:54:26.290Z,0
2023-03-24T18:00:04.841Z,2
2023-03-24T18:06:16.732Z,4
2023-03-24T18:11:53.943Z,2
2023-03-24T18:17:29.584Z,4
2023-03-24T18:23:07.789Z,0
2023-03-24T18:28:53.026Z,5
2023-03-24T18:34:30.153Z,4
2023-03-24T18:40:14.315Z,2
2023-03-24T18:45:56.015Z,0
2023-03-24T18:51:35.831Z,7
2023-03-24T18:57:14.941Z,0
2023-03-24T19:02:52.148Z,2
2023-03-24T19:08:30.119Z,4
2023-03-24T19:14:15.800Z,4
2023-03-24T19:20:10.903Z,4
2023-03-24T19:26:01.727Z,2
2023-03-24T19:31:49.394Z,4
2023-03-24T19:37:30.290Z,4
2023-03-24T19:43:09.320Z,0
2023-03-24T19:48:45.191Z,0
2023-03-24T19:54:23.187Z,4
2023-03-24T20:00:00.993Z,4
2023-03-24T20:05:45.418Z,0
2023-03-24T20:11:32.547Z,0
2023-03-24T20:17:15.302Z,2
2023-03-24T20:23:00.904Z,0
2023-03-24T20:28:47.150Z,8
2023-03-24T20:34:28.744Z,10
